sensor_id;sensor_type;location;lat;lon;timestamp;temperature;humidity
69626;DHT22;56847;51.984;5.088;2023-02-23T00:01:59;10.90;83.60
69626;DHT22;56847;51.984;5.088;2023-02-23T00:08:27;10.90;83.60
69626;DHT22;56847;51.984;5.088;2023-02-23T00:10:54;10.90;83.50
69626;DHT22;56847;51.984;5.088;2023-02-23T00:13:24;11.00;83.40
69626;DHT22;56847;51.984;5.088;2023-02-23T00:15:51;10.90;83.30
69626;DHT22;56847;51.984;5.088;2023-02-23T00:18:18;11.00;83.30
69626;DHT22;56847;51.984;5.088;2023-02-23T00:20:54;11.00;83.20
69626;DHT22;56847;51.984;5.088;2023-02-23T00:23:23;10.90;83.00
69626;DHT22;56847;51.984;5.088;2023-02-23T00:25:52;10.90;83.10
69626;DHT22;56847;51.984;5.088;2023-02-23T00:28:19;10.90;83.20
69626;DHT22;56847;51.984;5.088;2023-02-23T00:30:46;10.90;83.10
69626;DHT22;56847;51.984;5.088;2023-02-23T00:33:15;10.90;83.30
69626;DHT22;56847;51.984;5.088;2023-02-23T00:35:42;10.90;83.30
69626;DHT22;56847;51.984;5.088;2023-02-23T00:38:09;10.90;83.40
69626;DHT22;56847;51.984;5.088;2023-02-23T00:40:39;10.90;83.30
69626;DHT22;56847;51.984;5.088;2023-02-23T00:43:06;10.90;83.30
69626;DHT22;56847;51.984;5.088;2023-02-23T00:45:33;10.90;83.30
69626;DHT22;56847;51.984;5.088;2023-02-23T00:48:02;10.90;83.30
69626;DHT22;56847;51.984;5.088;2023-02-23T00:50:37;10.90;83.20
69626;DHT22;56847;51.984;5.088;2023-02-23T00:53:07;10.90;83.30
69626;DHT22;56847;51.984;5.088;2023-02-23T00:55:39;10.90;83.30
69626;DHT22;56847;51.984;5.088;2023-02-23T00:58:07;10.90;83.40
69626;DHT22;56847;51.984;5.088;2023-02-23T01:00:35;10.90;83.30
69626;DHT22;56847;51.984;5.088;2023-02-23T01:03:07;10.90;83.50
69626;DHT22;56847;51.984;5.088;2023-02-23T01:05:35;10.90;83.40
69626;DHT22;56847;51.984;5.088;2023-02-23T01:08:02;11.00;83.40
69626;DHT22;56847;51.984;5.088;2023-02-23T01:10:30;11.00;83.40
69626;DHT22;56847;51.984;5.088;2023-02-23T01:12:57;11.00;83.30
69626;DHT22;56847;51.984;5.088;2023-02-23T01:15:24;11.00;83.30
69626;DHT22;56847;51.984;5.088;2023-02-23T01:17:51;10.90;83.30
69626;DHT22;56847;51.984;5.088;2023-02-23T01:20:18;10.90;83.30
69626;DHT22;56847;51.984;5.088;2023-02-23T01:22:48;10.90;83.30
69626;DHT22;56847;51.984;5.088;2023-02-23T01:25:16;10.90;83.30
69626;DHT22;56847;51.984;5.088;2023-02-23T01:27:43;10.90;83.40
69626;DHT22;56847;51.984;5.088;2023-02-23T01:30:14;10.90;83.30
69626;DHT22;56847;51.984;5.088;2023-02-23T01:32:42;10.90;83.40
69626;DHT22;56847;51.984;5.088;2023-02-23T01:35:10;10.90;83.40
69626;DHT22;56847;51.984;5.088;2023-02-23T01:37:40;10.90;83.40
69626;DHT22;56847;51.984;5.088;2023-02-23T01:40:12;10.90;83.50
69626;DHT22;56847;51.984;5.088;2023-02-23T01:42:44;10.90;83.40
69626;DHT22;56847;51.984;5.088;2023-02-23T01:45:34;10.90;83.40
69626;DHT22;56847;51.984;5.088;2023-02-23T01:48:26;10.90;83.40
69626;DHT22;56847;51.984;5.088;2023-02-23T01:51:00;10.90;83.40
69626;DHT22;56847;51.984;5.088;2023-02-23T01:53:31;10.90;83.60
69626;DHT22;56847;51.984;5.088;2023-02-23T01:56:07;10.80;83.60
69626;DHT22;56847;51.984;5.088;2023-02-23T01:58:40;10.90;83.60
69626;DHT22;56847;51.984;5.088;2023-02-23T02:01:10;10.80;83.60
69626;DHT22;56847;51.984;5.088;2023-02-23T02:03:44;10.80;83.60
69626;DHT22;56847;51.984;5.088;2023-02-23T02:06:17;10.80;83.70
69626;DHT22;56847;51.984;5.088;2023-02-23T02:08:51;10.80;83.80
69626;DHT22;56847;51.984;5.088;2023-02-23T02:11:21;10.80;83.80
69626;DHT22;56847;51.984;5.088;2023-02-23T02:13:58;10.80;83.70
69626;DHT22;56847;51.984;5.088;2023-02-23T02:22:22;10.80;84.00
69626;DHT22;56847;51.984;5.088;2023-02-23T02:28:08;10.80;83.90
69626;DHT22;56847;51.984;5.088;2023-02-23T02:31:02;10.80;83.90
69626;DHT22;56847;51.984;5.088;2023-02-23T02:42:15;10.70;84.10
69626;DHT22;56847;51.984;5.088;2023-02-23T02:47:41;10.70;84.20
69626;DHT22;56847;51.984;5.088;2023-02-23T02:50:31;10.70;84.30
69626;DHT22;56847;51.984;5.088;2023-02-23T02:53:04;10.70;84.40
69626;DHT22;56847;51.984;5.088;2023-02-23T02:55:33;10.60;84.50
69626;DHT22;56847;51.984;5.088;2023-02-23T02:58:06;10.60;84.50
69626;DHT22;56847;51.984;5.088;2023-02-23T03:00:40;10.60;84.60
69626;DHT22;56847;51.984;5.088;2023-02-23T03:03:28;10.60;84.60
69626;DHT22;56847;51.984;5.088;2023-02-23T03:06:14;10.60;84.70
69626;DHT22;56847;51.984;5.088;2023-02-23T03:09:10;10.60;84.70
69626;DHT22;56847;51.984;5.088;2023-02-23T03:12:07;10.60;84.70
69626;DHT22;56847;51.984;5.088;2023-02-23T03:17:45;10.60;84.70
69626;DHT22;56847;51.984;5.088;2023-02-23T03:24:15;10.60;84.70
69626;DHT22;56847;51.984;5.088;2023-02-23T03:26:41;10.60;84.90
69626;DHT22;56847;51.984;5.088;2023-02-23T03:29:35;10.60;84.80
69626;DHT22;56847;51.984;5.088;2023-02-23T03:32:55;10.50;85.00
69626;DHT22;56847;51.984;5.088;2023-02-23T03:35:59;10.60;85.10
69626;DHT22;56847;51.984;5.088;2023-02-23T03:39:10;10.50;85.00
69626;DHT22;56847;51.984;5.088;2023-02-23T03:42:01;10.50;85.20
69626;DHT22;56847;51.984;5.088;2023-02-23T03:44:50;10.50;85.10
69626;DHT22;56847;51.984;5.088;2023-02-23T03:47:38;10.50;85.20
69626;DHT22;56847;51.984;5.088;2023-02-23T03:50:42;10.50;85.20
69626;DHT22;56847;51.984;5.088;2023-02-23T03:53:44;10.50;85.30
69626;DHT22;56847;51.984;5.088;2023-02-23T03:56:33;10.50;85.20
69626;DHT22;56847;51.984;5.088;2023-02-23T03:59:24;10.50;85.10
69626;DHT22;56847;51.984;5.088;2023-02-23T04:02:13;10.50;85.20
69626;DHT22;56847;51.984;5.088;2023-02-23T04:05:05;10.50;85.20
69626;DHT22;56847;51.984;5.088;2023-02-23T04:07:53;10.50;85.30
69626;DHT22;56847;51.984;5.088;2023-02-23T04:10:45;10.50;85.20
69626;DHT22;56847;51.984;5.088;2023-02-23T04:13:33;10.50;85.30
69626;DHT22;56847;51.984;5.088;2023-02-23T04:16:06;10.50;85.20
69626;DHT22;56847;51.984;5.088;2023-02-23T04:18:37;10.50;85.30
69626;DHT22;56847;51.984;5.088;2023-02-23T04:21:06;10.50;85.40
69626;DHT22;56847;51.984;5.088;2023-02-23T04:23:34;10.50;85.40
69626;DHT22;56847;51.984;5.088;2023-02-23T04:26:01;10.60;85.50
69626;DHT22;56847;51.984;5.088;2023-02-23T04:28:28;10.60;85.40
69626;DHT22;56847;51.984;5.088;2023-02-23T04:30:56;10.60;85.30
69626;DHT22;56847;51.984;5.088;2023-02-23T04:33:23;10.60;85.20
69626;DHT22;56847;51.984;5.088;2023-02-23T04:35:53;10.60;85.20
69626;DHT22;56847;51.984;5.088;2023-02-23T04:38:21;10.60;85.20
69626;DHT22;56847;51.984;5.088;2023-02-23T04:40:48;10.60;85.20
69626;DHT22;56847;51.984;5.088;2023-02-23T04:43:15;10.60;85.20
69626;DHT22;56847;51.984;5.088;2023-02-23T04:45:44;10.60;85.20
69626;DHT22;56847;51.984;5.088;2023-02-23T04:48:11;10.60;85.20
69626;DHT22;56847;51.984;5.088;2023-02-23T04:50:38;10.60;85.10
69626;DHT22;56847;51.984;5.088;2023-02-23T04:53:05;10.60;85.20
69626;DHT22;56847;51.984;5.088;2023-02-23T04:55:32;10.60;85.20
69626;DHT22;56847;51.984;5.088;2023-02-23T04:58:00;10.60;85.20
69626;DHT22;56847;51.984;5.088;2023-02-23T05:00:28;10.60;85.00
69626;DHT22;56847;51.984;5.088;2023-02-23T05:02:56;10.60;85.10
69626;DHT22;56847;51.984;5.088;2023-02-23T05:05:23;10.60;85.10
69626;DHT22;56847;51.984;5.088;2023-02-23T05:07:50;10.60;85.00
69626;DHT22;56847;51.984;5.088;2023-02-23T05:10:18;10.60;85.00
69626;DHT22;56847;51.984;5.088;2023-02-23T05:12:45;10.60;85.10
69626;DHT22;56847;51.984;5.088;2023-02-23T05:15:12;10.60;85.00
69626;DHT22;56847;51.984;5.088;2023-02-23T05:17:40;10.60;85.00
69626;DHT22;56847;51.984;5.088;2023-02-23T05:20:09;10.60;85.00
69626;DHT22;56847;51.984;5.088;2023-02-23T05:22:36;10.60;84.90
69626;DHT22;56847;51.984;5.088;2023-02-23T05:25:05;10.60;84.80
69626;DHT22;56847;51.984;5.088;2023-02-23T05:27:32;10.60;85.00
69626;DHT22;56847;51.984;5.088;2023-02-23T05:30:00;10.50;85.00
69626;DHT22;56847;51.984;5.088;2023-02-23T05:32:27;10.50;85.00
69626;DHT22;56847;51.984;5.088;2023-02-23T05:34:54;10.50;85.00
69626;DHT22;56847;51.984;5.088;2023-02-23T05:37:21;10.50;84.90
69626;DHT22;56847;51.984;5.088;2023-02-23T05:39:48;10.50;85.00
69626;DHT22;56847;51.984;5.088;2023-02-23T05:42:15;10.50;85.10
69626;DHT22;56847;51.984;5.088;2023-02-23T05:44:42;10.50;85.00
69626;DHT22;56847;51.984;5.088;2023-02-23T05:47:09;10.50;85.00
69626;DHT22;56847;51.984;5.088;2023-02-23T05:49:36;10.50;85.10
69626;DHT22;56847;51.984;5.088;2023-02-23T05:52:04;10.60;85.00
69626;DHT22;56847;51.984;5.088;2023-02-23T05:54:31;10.60;84.90
69626;DHT22;56847;51.984;5.088;2023-02-23T05:57:04;10.60;84.80
69626;DHT22;56847;51.984;5.088;2023-02-23T05:59:31;10.60;84.70
69626;DHT22;56847;51.984;5.088;2023-02-23T06:01:58;10.50;84.70
69626;DHT22;56847;51.984;5.088;2023-02-23T06:04:25;10.50;84.70
69626;DHT22;56847;51.984;5.088;2023-02-23T06:06:52;10.50;84.80
69626;DHT22;56847;51.984;5.088;2023-02-23T06:09:19;10.50;84.80
69626;DHT22;56847;51.984;5.088;2023-02-23T06:11:46;10.50;84.80
69626;DHT22;56847;51.984;5.088;2023-02-23T06:14:13;10.40;84.80
69626;DHT22;56847;51.984;5.088;2023-02-23T06:16:42;10.40;84.90
69626;DHT22;56847;51.984;5.088;2023-02-23T06:19:11;10.50;84.90
69626;DHT22;56847;51.984;5.088;2023-02-23T06:21:37;10.40;84.80
69626;DHT22;56847;51.984;5.088;2023-02-23T06:24:04;10.40;84.80
69626;DHT22;56847;51.984;5.088;2023-02-23T06:26:32;10.40;84.90
69626;DHT22;56847;51.984;5.088;2023-02-23T06:29:00;10.40;84.90
69626;DHT22;56847;51.984;5.088;2023-02-23T06:31:28;10.40;84.90
69626;DHT22;56847;51.984;5.088;2023-02-23T06:33:55;10.40;84.80
69626;DHT22;56847;51.984;5.088;2023-02-23T06:36:22;10.40;85.00
69626;DHT22;56847;51.984;5.088;2023-02-23T06:38:49;10.40;85.00
69626;DHT22;56847;51.984;5.088;2023-02-23T06:41:16;10.40;85.10
69626;DHT22;56847;51.984;5.088;2023-02-23T06:43:43;10.40;85.00
69626;DHT22;56847;51.984;5.088;2023-02-23T06:46:11;10.40;85.00
69626;DHT22;56847;51.984;5.088;2023-02-23T06:48:38;10.40;85.00
69626;DHT22;56847;51.984;5.088;2023-02-23T06:51:05;10.50;84.90
69626;DHT22;56847;51.984;5.088;2023-02-23T06:53:32;10.40;85.00
69626;DHT22;56847;51.984;5.088;2023-02-23T06:55:59;10.50;85.10
69626;DHT22;56847;51.984;5.088;2023-02-23T06:58:28;10.50;85.10
69626;DHT22;56847;51.984;5.088;2023-02-23T07:00:56;10.50;85.10
69626;DHT22;56847;51.984;5.088;2023-02-23T07:03:24;10.50;85.10
69626;DHT22;56847;51.984;5.088;2023-02-23T07:05:52;10.50;85.00
69626;DHT22;56847;51.984;5.088;2023-02-23T07:08:19;10.50;85.00
69626;DHT22;56847;51.984;5.088;2023-02-23T07:10:47;10.50;84.90
69626;DHT22;56847;51.984;5.088;2023-02-23T07:13:14;10.50;85.00
69626;DHT22;56847;51.984;5.088;2023-02-23T07:15:41;10.50;85.00
69626;DHT22;56847;51.984;5.088;2023-02-23T07:18:08;10.50;85.00
69626;DHT22;56847;51.984;5.088;2023-02-23T07:20:35;10.50;85.10
69626;DHT22;56847;51.984;5.088;2023-02-23T07:23:02;10.50;85.00
69626;DHT22;56847;51.984;5.088;2023-02-23T07:25:30;10.50;85.00
69626;DHT22;56847;51.984;5.088;2023-02-23T07:27:57;10.60;85.00
69626;DHT22;56847;51.984;5.088;2023-02-23T07:30:24;10.60;85.00
69626;DHT22;56847;51.984;5.088;2023-02-23T07:32:52;10.60;85.00
69626;DHT22;56847;51.984;5.088;2023-02-23T07:35:19;10.60;84.90
69626;DHT22;56847;51.984;5.088;2023-02-23T07:37:49;10.60;85.00
69626;DHT22;56847;51.984;5.088;2023-02-23T07:40:16;10.60;85.10
69626;DHT22;56847;51.984;5.088;2023-02-23T07:42:45;10.60;85.10
69626;DHT22;56847;51.984;5.088;2023-02-23T07:45:13;10.60;85.30
69626;DHT22;56847;51.984;5.088;2023-02-23T07:47:39;10.60;85.30
69626;DHT22;56847;51.984;5.088;2023-02-23T07:50:07;10.70;85.20
69626;DHT22;56847;51.984;5.088;2023-02-23T07:52:37;10.70;85.10
69626;DHT22;56847;51.984;5.088;2023-02-23T07:55:05;10.70;85.10
69626;DHT22;56847;51.984;5.088;2023-02-23T07:57:33;10.80;85.20
69626;DHT22;56847;51.984;5.088;2023-02-23T08:00:00;10.80;85.20
69626;DHT22;56847;51.984;5.088;2023-02-23T08:02:27;10.90;85.00
69626;DHT22;56847;51.984;5.088;2023-02-23T08:04:58;10.90;85.00
69626;DHT22;56847;51.984;5.088;2023-02-23T08:07:25;10.90;85.20
69626;DHT22;56847;51.984;5.088;2023-02-23T08:09:52;11.00;85.20
69626;DHT22;56847;51.984;5.088;2023-02-23T08:12:19;11.00;85.00
69626;DHT22;56847;51.984;5.088;2023-02-23T08:14:46;11.00;85.00
69626;DHT22;56847;51.984;5.088;2023-02-23T08:17:13;11.10;85.00
69626;DHT22;56847;51.984;5.088;2023-02-23T08:19:43;11.10;84.90
69626;DHT22;56847;51.984;5.088;2023-02-23T08:22:10;11.00;84.80
69626;DHT22;56847;51.984;5.088;2023-02-23T08:24:37;11.00;84.90
69626;DHT22;56847;51.984;5.088;2023-02-23T08:27:04;11.00;84.70
69626;DHT22;56847;51.984;5.088;2023-02-23T08:29:33;11.00;84.70
69626;DHT22;56847;51.984;5.088;2023-02-23T08:32:02;11.00;84.80
69626;DHT22;56847;51.984;5.088;2023-02-23T08:34:29;11.10;85.10
69626;DHT22;56847;51.984;5.088;2023-02-23T08:36:56;11.10;85.00
69626;DHT22;56847;51.984;5.088;2023-02-23T08:39:24;11.10;84.90
69626;DHT22;56847;51.984;5.088;2023-02-23T08:41:51;11.20;85.00
69626;DHT22;56847;51.984;5.088;2023-02-23T08:44:21;11.20;84.90
69626;DHT22;56847;51.984;5.088;2023-02-23T08:46:48;11.20;84.80
69626;DHT22;56847;51.984;5.088;2023-02-23T08:49:15;11.20;84.60
69626;DHT22;56847;51.984;5.088;2023-02-23T08:51:42;11.20;84.50
69626;DHT22;56847;51.984;5.088;2023-02-23T08:54:09;11.30;84.50
69626;DHT22;56847;51.984;5.088;2023-02-23T08:56:40;11.30;84.60
69626;DHT22;56847;51.984;5.088;2023-02-23T08:59:12;11.40;84.60
69626;DHT22;56847;51.984;5.088;2023-02-23T09:01:39;11.40;84.40
69626;DHT22;56847;51.984;5.088;2023-02-23T09:04:08;11.40;84.40
69626;DHT22;56847;51.984;5.088;2023-02-23T09:06:35;11.50;84.40
69626;DHT22;56847;51.984;5.088;2023-02-23T09:09:02;11.50;84.30
69626;DHT22;56847;51.984;5.088;2023-02-23T09:11:29;11.60;84.50
69626;DHT22;56847;51.984;5.088;2023-02-23T09:13:56;11.70;84.30
69626;DHT22;56847;51.984;5.088;2023-02-23T09:16:23;11.70;84.10
69626;DHT22;56847;51.984;5.088;2023-02-23T09:18:51;11.70;83.80
69626;DHT22;56847;51.984;5.088;2023-02-23T09:21:19;11.70;83.70
69626;DHT22;56847;51.984;5.088;2023-02-23T09:23:51;11.70;83.60
69626;DHT22;56847;51.984;5.088;2023-02-23T09:26:20;11.80;83.80
69626;DHT22;56847;51.984;5.088;2023-02-23T09:28:48;11.80;83.90
69626;DHT22;56847;51.984;5.088;2023-02-23T09:31:21;11.80;83.30
69626;DHT22;56847;51.984;5.088;2023-02-23T09:33:49;11.80;83.40
69626;DHT22;56847;51.984;5.088;2023-02-23T09:36:22;11.90;83.50
69626;DHT22;56847;51.984;5.088;2023-02-23T09:38:52;11.90;83.30
69626;DHT22;56847;51.984;5.088;2023-02-23T09:46:39;12.00;83.10
69626;DHT22;56847;51.984;5.088;2023-02-23T09:49:16;12.00;82.40
69626;DHT22;56847;51.984;5.088;2023-02-23T09:51:51;12.00;82.70
69626;DHT22;56847;51.984;5.088;2023-02-23T09:54:28;12.10;82.60
69626;DHT22;56847;51.984;5.088;2023-02-23T09:56:56;12.10;82.30
69626;DHT22;56847;51.984;5.088;2023-02-23T09:59:30;12.20;82.30
69626;DHT22;56847;51.984;5.088;2023-02-23T10:05:07;12.20;82.20
69626;DHT22;56847;51.984;5.088;2023-02-23T10:07:54;12.20;82.00
69626;DHT22;56847;51.984;5.088;2023-02-23T10:13:20;12.20;80.70
69626;DHT22;56847;51.984;5.088;2023-02-23T10:16:18;12.20;81.40
69626;DHT22;56847;51.984;5.088;2023-02-23T10:21:38;12.20;81.50
69626;DHT22;56847;51.984;5.088;2023-02-23T10:26:50;12.10;81.20
69626;DHT22;56847;51.984;5.088;2023-02-23T10:29:33;12.10;81.10
69626;DHT22;56847;51.984;5.088;2023-02-23T10:32:05;12.20;81.60
69626;DHT22;56847;51.984;5.088;2023-02-23T10:34:34;12.30;81.70
69626;DHT22;56847;51.984;5.088;2023-02-23T10:37:05;12.40;81.70
69626;DHT22;56847;51.984;5.088;2023-02-23T10:39:32;12.50;81.20
69626;DHT22;56847;51.984;5.088;2023-02-23T10:42:04;12.60;81.10
69626;DHT22;56847;51.984;5.088;2023-02-23T10:44:32;12.70;81.20
69626;DHT22;56847;51.984;5.088;2023-02-23T10:47:19;12.80;80.30
69626;DHT22;56847;51.984;5.088;2023-02-23T10:49:55;12.80;80.30
69626;DHT22;56847;51.984;5.088;2023-02-23T10:52:45;13.00;81.00
69626;DHT22;56847;51.984;5.088;2023-02-23T10:55:23;13.10;79.50
69626;DHT22;56847;51.984;5.088;2023-02-23T10:58:21;13.10;79.30
69626;DHT22;56847;51.984;5.088;2023-02-23T11:01:00;13.20;79.30
69626;DHT22;56847;51.984;5.088;2023-02-23T11:03:43;13.20;78.50
69626;DHT22;56847;51.984;5.088;2023-02-23T11:06:35;13.10;78.40
69626;DHT22;56847;51.984;5.088;2023-02-23T11:09:32;13.20;78.10
69626;DHT22;56847;51.984;5.088;2023-02-23T11:12:37;13.10;77.30
69626;DHT22;56847;51.984;5.088;2023-02-23T11:15:27;13.10;76.90
69626;DHT22;56847;51.984;5.088;2023-02-23T11:18:21;13.10;77.20
69626;DHT22;56847;51.984;5.088;2023-02-23T11:20:58;13.10;77.40
69626;DHT22;56847;51.984;5.088;2023-02-23T11:23:50;13.10;77.30
69626;DHT22;56847;51.984;5.088;2023-02-23T11:26:37;13.20;77.10
69626;DHT22;56847;51.984;5.088;2023-02-23T11:32:16;13.00;75.60
69626;DHT22;56847;51.984;5.088;2023-02-23T11:35:09;13.00;75.70
69626;DHT22;56847;51.984;5.088;2023-02-23T11:37:41;12.90;76.50
69626;DHT22;56847;51.984;5.088;2023-02-23T11:40:27;12.90;75.70
69626;DHT22;56847;51.984;5.088;2023-02-23T11:43:24;12.80;76.10
69626;DHT22;56847;51.984;5.088;2023-02-23T11:45:58;12.80;76.50
69626;DHT22;56847;51.984;5.088;2023-02-23T11:48:47;12.80;76.30
69626;DHT22;56847;51.984;5.088;2023-02-23T11:51:30;12.70;75.10
69626;DHT22;56847;51.984;5.088;2023-02-23T11:54:04;12.60;75.40
69626;DHT22;56847;51.984;5.088;2023-02-23T11:56:36;12.50;76.00
69626;DHT22;56847;51.984;5.088;2023-02-23T11:59:15;12.50;76.50
69626;DHT22;56847;51.984;5.088;2023-02-23T12:01:53;12.50;76.60
69626;DHT22;56847;51.984;5.088;2023-02-23T12:04:34;12.40;76.70
69626;DHT22;56847;51.984;5.088;2023-02-23T12:19:17;12.30;77.90
69626;DHT22;56847;51.984;5.088;2023-02-23T12:22:06;12.40;78.20
69626;DHT22;56847;51.984;5.088;2023-02-23T12:27:41;12.30;77.30
69626;DHT22;56847;51.984;5.088;2023-02-23T12:30:19;12.40;77.30
69626;DHT22;56847;51.984;5.088;2023-02-23T12:33:03;12.50;77.70
69626;DHT22;56847;51.984;5.088;2023-02-23T12:41:17;12.70;77.40
69626;DHT22;56847;51.984;5.088;2023-02-23T12:43:57;12.60;77.30
69626;DHT22;56847;51.984;5.088;2023-02-23T12:46:33;12.70;77.20
69626;DHT22;56847;51.984;5.088;2023-02-23T12:49:31;12.70;77.30
69626;DHT22;56847;51.984;5.088;2023-02-23T12:52:26;12.60;77.00
69626;DHT22;56847;51.984;5.088;2023-02-23T12:54:57;12.60;76.80
69626;DHT22;56847;51.984;5.088;2023-02-23T12:58:04;12.50;76.80
69626;DHT22;56847;51.984;5.088;2023-02-23T13:03:49;12.60;78.00
69626;DHT22;56847;51.984;5.088;2023-02-23T13:06:38;12.60;77.60
69626;DHT22;56847;51.984;5.088;2023-02-23T13:12:22;12.80;77.40
69626;DHT22;56847;51.984;5.088;2023-02-23T13:18:17;13.00;78.10
69626;DHT22;56847;51.984;5.088;2023-02-23T13:21:30;13.20;77.90
69626;DHT22;56847;51.984;5.088;2023-02-23T13:24:26;13.30;76.50
69626;DHT22;56847;51.984;5.088;2023-02-23T13:27:23;13.20;77.30
69626;DHT22;56847;51.984;5.088;2023-02-23T13:29:53;13.20;76.20
69626;DHT22;56847;51.984;5.088;2023-02-23T13:32:23;13.10;75.70
69626;DHT22;56847;51.984;5.088;2023-02-23T13:34:59;13.00;75.20
69626;DHT22;56847;51.984;5.088;2023-02-23T13:40:17;13.00;76.10
69626;DHT22;56847;51.984;5.088;2023-02-23T13:48:58;12.80;75.30
69626;DHT22;56847;51.984;5.088;2023-02-23T13:51:37;12.70;75.10
69626;DHT22;56847;51.984;5.088;2023-02-23T13:54:26;12.60;75.10
69626;DHT22;56847;51.984;5.088;2023-02-23T13:56:59;12.50;75.90
69626;DHT22;56847;51.984;5.088;2023-02-23T13:59:37;12.50;76.00
69626;DHT22;56847;51.984;5.088;2023-02-23T14:05:04;12.40;76.20
69626;DHT22;56847;51.984;5.088;2023-02-23T14:07:38;12.30;76.60
69626;DHT22;56847;51.984;5.088;2023-02-23T14:10:13;12.40;77.30
69626;DHT22;56847;51.984;5.088;2023-02-23T14:13:01;12.40;77.40
69626;DHT22;56847;51.984;5.088;2023-02-23T14:16:06;12.40;77.40
69626;DHT22;56847;51.984;5.088;2023-02-23T14:18:33;12.40;77.70
69626;DHT22;56847;51.984;5.088;2023-02-23T14:23:38;12.50;77.20
69626;DHT22;56847;51.984;5.088;2023-02-23T14:26:34;12.50;77.60
69626;DHT22;56847;51.984;5.088;2023-02-23T14:29:24;12.50;77.50
69626;DHT22;56847;51.984;5.088;2023-02-23T14:37:36;12.30;77.50
69626;DHT22;56847;51.984;5.088;2023-02-23T14:40:16;12.20;77.60
69626;DHT22;56847;51.984;5.088;2023-02-23T14:42:56;12.20;77.90
69626;DHT22;56847;51.984;5.088;2023-02-23T14:45:26;12.20;78.10
69626;DHT22;56847;51.984;5.088;2023-02-23T14:48:04;12.20;78.40
69626;DHT22;56847;51.984;5.088;2023-02-23T14:50:34;12.20;78.40
69626;DHT22;56847;51.984;5.088;2023-02-23T14:53:02;12.30;78.40
69626;DHT22;56847;51.984;5.088;2023-02-23T14:55:32;12.30;78.40
69626;DHT22;56847;51.984;5.088;2023-02-23T14:58:02;12.40;78.70
69626;DHT22;56847;51.984;5.088;2023-02-23T15:00:32;12.40;78.40
69626;DHT22;56847;51.984;5.088;2023-02-23T15:03:09;12.40;78.50
69626;DHT22;56847;51.984;5.088;2023-02-23T15:05:47;12.50;78.90
69626;DHT22;56847;51.984;5.088;2023-02-23T15:08:25;12.60;79.30
69626;DHT22;56847;51.984;5.088;2023-02-23T15:10:59;12.70;79.50
69626;DHT22;56847;51.984;5.088;2023-02-23T15:13:33;12.80;78.90
69626;DHT22;56847;51.984;5.088;2023-02-23T15:16:04;12.80;78.40
69626;DHT22;56847;51.984;5.088;2023-02-23T15:18:35;12.80;78.10
69626;DHT22;56847;51.984;5.088;2023-02-23T15:21:12;12.80;78.40
69626;DHT22;56847;51.984;5.088;2023-02-23T15:23:46;12.90;78.80
69626;DHT22;56847;51.984;5.088;2023-02-23T15:26:24;12.90;78.50
69626;DHT22;56847;51.984;5.088;2023-02-23T15:28:52;12.90;78.80
69626;DHT22;56847;51.984;5.088;2023-02-23T15:31:21;13.00;78.80
69626;DHT22;56847;51.984;5.088;2023-02-23T15:33:49;13.00;78.80
69626;DHT22;56847;51.984;5.088;2023-02-23T15:36:28;12.90;78.40
69626;DHT22;56847;51.984;5.088;2023-02-23T15:39:00;12.90;78.20
69626;DHT22;56847;51.984;5.088;2023-02-23T15:41:34;12.90;77.90
69626;DHT22;56847;51.984;5.088;2023-02-23T15:44:25;12.80;77.40
69626;DHT22;56847;51.984;5.088;2023-02-23T15:47:22;12.60;76.70
69626;DHT22;56847;51.984;5.088;2023-02-23T15:50:05;12.50;76.50
69626;DHT22;56847;51.984;5.088;2023-02-23T15:52:33;12.30;77.00
69626;DHT22;56847;51.984;5.088;2023-02-23T15:55:07;12.20;76.60
69626;DHT22;56847;51.984;5.088;2023-02-23T15:57:46;12.10;77.40
69626;DHT22;56847;51.984;5.088;2023-02-23T16:00:20;12.00;77.50
69626;DHT22;56847;51.984;5.088;2023-02-23T16:03:02;11.90;77.20
69626;DHT22;56847;51.984;5.088;2023-02-23T16:05:32;11.70;77.30
69626;DHT22;56847;51.984;5.088;2023-02-23T16:08:18;11.60;77.80
69626;DHT22;56847;51.984;5.088;2023-02-23T16:10:52;11.60;78.10
69626;DHT22;56847;51.984;5.088;2023-02-23T16:13:25;11.60;78.00
69626;DHT22;56847;51.984;5.088;2023-02-23T16:15:53;11.50;77.80
69626;DHT22;56847;51.984;5.088;2023-02-23T16:18:40;11.40;77.90
69626;DHT22;56847;51.984;5.088;2023-02-23T16:21:14;11.40;78.00
69626;DHT22;56847;51.984;5.088;2023-02-23T16:23:47;11.30;78.10
69626;DHT22;56847;51.984;5.088;2023-02-23T16:26:44;11.30;78.40
69626;DHT22;56847;51.984;5.088;2023-02-23T16:29:20;11.30;78.80
69626;DHT22;56847;51.984;5.088;2023-02-23T16:31:56;11.30;78.40
69626;DHT22;56847;51.984;5.088;2023-02-23T16:34:25;11.30;78.50
69626;DHT22;56847;51.984;5.088;2023-02-23T16:36:59;11.30;78.10
69626;DHT22;56847;51.984;5.088;2023-02-23T16:39:28;11.20;78.40
69626;DHT22;56847;51.984;5.088;2023-02-23T16:41:56;11.10;78.10
69626;DHT22;56847;51.984;5.088;2023-02-23T16:44:26;11.10;78.30
69626;DHT22;56847;51.984;5.088;2023-02-23T16:49:34;11.10;79.00
69626;DHT22;56847;51.984;5.088;2023-02-23T16:52:01;11.10;79.00
69626;DHT22;56847;51.984;5.088;2023-02-23T16:54:30;11.10;78.80
69626;DHT22;56847;51.984;5.088;2023-02-23T16:56:56;11.10;79.00
69626;DHT22;56847;51.984;5.088;2023-02-23T16:59:23;11.10;78.70
69626;DHT22;56847;51.984;5.088;2023-02-23T17:01:50;11.10;78.80
69626;DHT22;56847;51.984;5.088;2023-02-23T17:04:20;11.00;78.60
69626;DHT22;56847;51.984;5.088;2023-02-23T17:06:47;11.00;78.50
69626;DHT22;56847;51.984;5.088;2023-02-23T17:09:23;10.90;78.60
69626;DHT22;56847;51.984;5.088;2023-02-23T17:11:51;10.90;78.80
69626;DHT22;56847;51.984;5.088;2023-02-23T17:14:23;10.90;78.80
69626;DHT22;56847;51.984;5.088;2023-02-23T17:16:51;10.90;78.60
69626;DHT22;56847;51.984;5.088;2023-02-23T17:19:18;10.80;78.40
69626;DHT22;56847;51.984;5.088;2023-02-23T17:21:45;10.80;78.50
69626;DHT22;56847;51.984;5.088;2023-02-23T17:24:12;10.70;78.30
69626;DHT22;56847;51.984;5.088;2023-02-23T17:26:39;10.70;78.30
69626;DHT22;56847;51.984;5.088;2023-02-23T17:29:08;10.60;78.40
69626;DHT22;56847;51.984;5.088;2023-02-23T17:31:35;10.50;78.60
69626;DHT22;56847;51.984;5.088;2023-02-23T17:34:07;10.50;78.70
69626;DHT22;56847;51.984;5.088;2023-02-23T17:36:34;10.40;78.60
69626;DHT22;56847;51.984;5.088;2023-02-23T17:39:02;10.40;78.50
69626;DHT22;56847;51.984;5.088;2023-02-23T17:41:29;10.30;78.60
69626;DHT22;56847;51.984;5.088;2023-02-23T17:43:56;10.30;78.30
69626;DHT22;56847;51.984;5.088;2023-02-23T17:46:23;10.30;78.60
69626;DHT22;56847;51.984;5.088;2023-02-23T17:48:50;10.20;78.00
69626;DHT22;56847;51.984;5.088;2023-02-23T17:51:20;10.20;78.30
69626;DHT22;56847;51.984;5.088;2023-02-23T17:53:48;10.20;78.50
69626;DHT22;56847;51.984;5.088;2023-02-23T17:56:15;10.20;78.40